Time;durP1;ratioP1;P1;durP2;ratioP2;P2;SDS_P1;SDS_P2;PMS_P1;PMS_P2;Temp;Humidity;BMP_temperature;BMP_pressure;BME280_temperature;BME280_humidity;BME280_pressure;Samples;Min_cycle;Max_cycle;Signal;HPM_P1;HPM_P2
2021/12/28 00:02:25;;;;;;;41.30;25.30;;;3.40;99.90;;;;;;6277289;28;20975;-62
2021/12/28 00:05:29;;;;;;;46.80;26.50;;;3.40;99.90;;;;;;6277010;28;20482;-61
2021/12/28 00:08:34;;;;;;;49.73;26.37;;;3.40;99.90;;;;;;6276661;28;20807;-63
2021/12/28 00:11:37;;;;;;;46.57;25.23;;;3.30;99.90;;;;;;6270809;28;20474;-59
2021/12/28 00:14:49;;;;;;;47.80;28.53;;;3.40;99.90;;;;;;6265264;28;20486;-62
2021/12/28 00:18:02;;;;;;;47.57;28.10;;;3.40;99.90;;;;;;6252485;28;20478;-62
2021/12/28 00:21:08;;;;;;;55.90;27.70;;;3.30;99.90;;;;;;6274631;28;20448;-62
2021/12/28 00:24:12;;;;;;;55.70;26.40;;;3.40;99.90;;;;;;6274534;28;20459;-62
2021/12/28 00:27:15;;;;;;;46.60;26.23;;;3.40;99.90;;;;;;6274113;28;20445;-62
2021/12/28 00:30:19;;;;;;;55.57;28.40;;;3.50;99.90;;;;;;6274573;28;20949;-62
2021/12/28 00:33:25;;;;;;;48.13;25.93;;;3.50;99.90;;;;;;6274884;28;20481;-62
2021/12/28 00:36:28;;;;;;;47.27;28.10;;;3.50;99.90;;;;;;6275853;28;20477;-62
2021/12/28 00:39:33;;;;;;;49.80;27.97;;;3.50;99.90;;;;;;6275214;28;20500;-62
2021/12/28 00:42:36;;;;;;;48.53;28.00;;;3.60;99.90;;;;;;6275014;28;20981;-62
2021/12/28 00:45:39;;;;;;;46.27;26.60;;;3.60;99.90;;;;;;6270309;28;20493;-62
2021/12/28 00:48:42;;;;;;;59.07;31.60;;;3.50;99.90;;;;;;6275469;28;20537;-62
2021/12/28 00:51:46;;;;;;;52.03;28.80;;;3.60;99.90;;;;;;6275445;28;20470;-62
2021/12/28 00:54:50;;;;;;;58.73;31.13;;;3.60;99.90;;;;;;6274828;28;20942;-62
2021/12/28 00:57:54;;;;;;;53.20;30.00;;;3.60;99.90;;;;;;6275235;28;20480;-62
2021/12/28 01:00:57;;;;;;;60.50;30.03;;;3.70;99.90;;;;;;6275465;28;20466;-62
2021/12/28 01:04:01;;;;;;;60.90;31.33;;;3.70;99.90;;;;;;6275233;28;20478;-63
2021/12/28 01:07:05;;;;;;;59.80;31.10;;;3.70;99.90;;;;;;6275184;28;20557;-63
2021/12/28 01:10:13;;;;;;;55.13;30.37;;;3.70;99.90;;;;;;6274954;28;20470;-63
2021/12/28 01:13:18;;;;;;;56.13;30.07;;;3.60;99.90;;;;;;6274664;28;20824;-63
2021/12/28 01:16:21;;;;;;;57.33;30.53;;;3.60;99.90;;;;;;6275174;28;20474;-63
2021/12/28 01:19:24;;;;;;;53.47;29.07;;;3.60;99.90;;;;;;6273517;28;20473;-63
2021/12/28 01:22:27;;;;;;;41.40;25.73;;;3.60;99.90;;;;;;6274910;28;20470;-63
2021/12/28 01:25:32;;;;;;;50.23;30.47;;;3.50;99.90;;;;;;6274252;28;21257;-64
2021/12/28 01:28:36;;;;;;;49.73;28.87;;;3.50;99.90;;;;;;6273267;28;20813;-63
2021/12/28 01:31:39;;;;;;;52.50;27.97;;;3.50;99.90;;;;;;6273290;28;21240;-63
2021/12/28 01:34:43;;;;;;;47.73;28.33;;;3.60;99.90;;;;;;6273252;28;20493;-63
2021/12/28 01:37:47;;;;;;;49.63;27.93;;;3.60;99.90;;;;;;6273430;28;20470;-63
2021/12/28 01:40:53;;;;;;;44.50;24.60;;;3.50;99.90;;;;;;6273761;28;20488;-63
2021/12/28 01:43:56;;;;;;;47.70;25.33;;;3.50;99.90;;;;;;6274249;28;20501;-62
2021/12/28 01:47:00;;;;;;;45.83;26.97;;;3.60;99.90;;;;;;6274770;28;20475;-63
2021/12/28 01:50:03;;;;;;;49.70;27.67;;;3.60;99.90;;;;;;6274275;28;20474;-63
2021/12/28 01:53:07;;;;;;;53.73;29.87;;;3.60;99.90;;;;;;6260348;28;20492;-62
2021/12/28 01:56:15;;;;;;;57.37;30.37;;;3.70;99.90;;;;;;6273515;28;20516;-63
2021/12/28 01:59:20;;;;;;;52.73;29.07;;;3.60;99.90;;;;;;6274295;28;20470;-63
2021/12/28 02:02:23;;;;;;;53.07;29.50;;;3.60;99.90;;;;;;6274714;28;20507;-63
2021/12/28 02:05:27;;;;;;;50.67;27.00;;;3.60;99.90;;;;;;6274189;28;20486;-63
2021/12/28 02:08:31;;;;;;;47.47;28.47;;;3.50;99.90;;;;;;6274787;28;20466;-63
2021/12/28 02:11:36;;;;;;;48.40;27.57;;;3.40;99.90;;;;;;6274317;28;20466;-63
2021/12/28 02:14:44;;;;;;;48.67;28.73;;;3.50;99.90;;;;;;6273994;28;20974;-63
2021/12/28 02:17:47;;;;;;;53.43;28.83;;;3.50;99.90;;;;;;6274056;28;20470;-63
2021/12/28 02:20:54;;;;;;;47.83;25.93;;;3.50;99.90;;;;;;6274495;28;20781;-63
2021/12/28 02:23:57;;;;;;;48.47;28.27;;;3.50;99.90;;;;;;6273811;28;20470;-62
2021/12/28 02:27:00;;;;;;;53.27;27.20;;;3.50;99.90;;;;;;6273800;28;20465;-63
2021/12/28 02:30:06;;;;;;;46.23;27.53;;;3.50;99.90;;;;;;6275151;28;20504;-63
2021/12/28 02:33:10;;;;;;;55.60;29.27;;;3.50;99.90;;;;;;6278569;28;20467;-62
2021/12/28 02:36:15;;;;;;;53.30;30.60;;;3.50;99.90;;;;;;6279104;28;20807;-62
2021/12/28 02:39:18;;;;;;;50.33;26.60;;;3.50;99.90;;;;;;6278777;28;20508;-62
2021/12/28 02:42:25;;;;;;;48.00;27.60;;;3.50;99.90;;;;;;6278492;28;20847;-62
2021/12/28 02:45:30;;;;;;;53.70;29.03;;;3.50;99.90;;;;;;6278640;28;20480;-62
2021/12/28 02:48:35;;;;;;;50.67;28.73;;;3.50;99.90;;;;;;6278448;28;20462;-62
2021/12/28 02:51:39;;;;;;;55.50;30.70;;;3.50;99.90;;;;;;6277898;28;20825;-62
2021/12/28 02:54:42;;;;;;;55.20;29.03;;;3.40;99.90;;;;;;6268958;28;20474;-62
2021/12/28 02:57:47;;;;;;;50.20;30.40;;;3.40;99.90;;;;;;6278200;28;20482;-63
2021/12/28 03:00:53;;;;;;;54.47;28.80;;;3.50;99.90;;;;;;6277884;28;20976;-63
2021/12/28 03:04:03;;;;;;;56.17;31.17;;;3.40;99.90;;;;;;6277584;28;20863;-63
2021/12/28 03:07:08;;;;;;;53.27;29.77;;;3.40;99.90;;;;;;6278287;28;20476;-63
2021/12/28 03:10:11;;;;;;;52.57;27.17;;;3.40;99.90;;;;;;6278013;28;20961;-63
2021/12/28 03:13:16;;;;;;;53.33;28.30;;;3.40;99.90;;;;;;6277828;28;20523;-62
2021/12/28 03:16:21;;;;;;;51.03;28.40;;;3.50;99.90;;;;;;6277871;28;20481;-63
2021/12/28 03:19:25;;;;;;;49.97;28.50;;;3.50;99.90;;;;;;6277951;28;20492;-63
2021/12/28 03:22:30;;;;;;;53.60;26.70;;;3.50;99.90;;;;;;6277953;28;20473;-63
2021/12/28 03:25:33;;;;;;;51.10;25.93;;;3.40;99.90;;;;;;6277301;28;20935;-62
2021/12/28 03:28:39;;;;;;;53.23;28.07;;;3.40;99.90;;;;;;6277801;28;20539;-63
2021/12/28 03:31:42;;;;;;;55.13;28.20;;;3.40;99.90;;;;;;6277526;28;20478;-63
2021/12/28 03:34:45;;;;;;;55.87;27.90;;;3.40;99.90;;;;;;6277561;28;20536;-62
2021/12/28 03:37:50;;;;;;;49.73;27.40;;;3.40;99.90;;;;;;6276991;28;20481;-62
2021/12/28 03:40:54;;;;;;;51.30;30.07;;;3.40;99.90;;;;;;6277223;28;20951;-62
2021/12/28 03:43:58;;;;;;;51.07;30.00;;;3.40;99.90;;;;;;6275893;28;20477;-63
2021/12/28 03:47:01;;;;;;;52.70;26.93;;;3.50;99.90;;;;;;6276947;28;20503;-63
2021/12/28 03:50:05;;;;;;;52.90;28.70;;;3.50;99.90;;;;;;6276716;28;20474;-63
2021/12/28 03:53:10;;;;;;;53.67;29.73;;;3.50;99.90;;;;;;6276430;28;20478;-63
2021/12/28 03:56:14;;;;;;;54.37;28.40;;;3.60;99.90;;;;;;6276278;28;20485;-63
2021/12/28 03:59:17;;;;;;;55.43;29.30;;;3.60;99.90;;;;;;6271798;28;20528;-63
2021/12/28 04:02:21;;;;;;;51.47;28.57;;;3.50;99.90;;;;;;6276650;28;20484;-63
2021/12/28 04:05:24;;;;;;;51.97;30.07;;;3.50;99.90;;;;;;6276304;28;20984;-63
2021/12/28 04:08:29;;;;;;;53.77;29.20;;;3.50;99.90;;;;;;6276422;28;20466;-64
2021/12/28 04:11:32;;;;;;;50.10;27.10;;;3.50;99.90;;;;;;6276798;28;20473;-64
2021/12/28 04:14:35;;;;;;;52.03;29.33;;;3.50;99.90;;;;;;6276112;28;20485;-64
2021/12/28 04:17:38;;;;;;;53.40;29.00;;;3.60;99.90;;;;;;6276357;28;20989;-65
2021/12/28 04:20:42;;;;;;;50.43;27.73;;;3.50;99.90;;;;;;6276638;28;20474;-64
2021/12/28 04:23:47;;;;;;;58.37;30.63;;;3.60;99.90;;;;;;6276576;28;20822;-64
2021/12/28 04:26:50;;;;;;;66.97;32.40;;;3.60;99.90;;;;;;6276301;28;20812;-64
2021/12/28 04:29:53;;;;;;;56.10;29.80;;;3.60;99.90;;;;;;6275764;28;20474;-64
2021/12/28 04:32:56;;;;;;;52.90;30.70;;;3.50;99.90;;;;;;6275456;28;20485;-64
2021/12/28 04:36:00;;;;;;;57.47;32.20;;;3.60;99.90;;;;;;6275670;28;20493;-64
2021/12/28 04:39:05;;;;;;;55.07;29.40;;;3.50;99.90;;;;;;6275718;28;20466;-64
2021/12/28 04:42:08;;;;;;;55.90;30.30;;;3.50;99.90;;;;;;6275488;28;20451;-64
2021/12/28 04:45:14;;;;;;;57.47;29.70;;;3.60;99.90;;;;;;6275716;28;20458;-64
2021/12/28 04:48:18;;;;;;;57.47;31.07;;;3.60;99.90;;;;;;6276011;28;20464;-64
2021/12/28 04:51:23;;;;;;;57.17;29.47;;;3.60;99.90;;;;;;6276071;28;20463;-64
2021/12/28 04:54:27;;;;;;;63.00;32.40;;;3.60;99.90;;;;;;6274842;28;20470;-64
2021/12/28 04:57:30;;;;;;;56.97;28.90;;;3.60;99.90;;;;;;6276384;28;20469;-64
2021/12/28 05:00:35;;;;;;;61.03;31.17;;;3.60;99.90;;;;;;6275255;28;20470;-64
2021/12/28 05:03:38;;;;;;;61.43;30.10;;;3.60;99.90;;;;;;6275070;28;20485;-63
2021/12/28 05:06:42;;;;;;;53.00;28.20;;;3.60;99.90;;;;;;6275190;28;20470;-64
2021/12/28 05:09:46;;;;;;;63.97;30.60;;;3.60;99.90;;;;;;6275580;28;20467;-64
2021/12/28 05:12:50;;;;;;;56.83;28.07;;;3.60;99.90;;;;;;6274669;28;20953;-64
2021/12/28 05:15:53;;;;;;;57.93;29.60;;;3.60;99.90;;;;;;6274657;28;20493;-64
2021/12/28 05:18:57;;;;;;;56.33;28.63;;;3.60;99.90;;;;;;6275109;28;20477;-64
2021/12/28 05:22:04;;;;;;;67.33;30.63;;;3.60;99.90;;;;;;6275458;28;20482;-64
2021/12/28 05:25:09;;;;;;;55.53;28.30;;;3.60;99.90;;;;;;6274917;28;20790;-63
2021/12/28 05:28:13;;;;;;;58.70;30.60;;;3.60;99.90;;;;;;6274674;28;20821;-63
2021/12/28 05:31:16;;;;;;;63.13;33.47;;;3.60;99.90;;;;;;6274899;28;20477;-64
2021/12/28 05:34:19;;;;;;;59.73;31.80;;;3.60;99.90;;;;;;6274975;28;20514;-64
2021/12/28 05:37:22;;;;;;;69.87;33.13;;;3.60;99.90;;;;;;6274579;28;20482;-64
2021/12/28 05:40:27;;;;;;;65.43;32.30;;;3.60;99.90;;;;;;6274775;28;20470;-64
2021/12/28 05:43:30;;;;;;;59.27;31.03;;;3.60;99.90;;;;;;6274445;28;20954;-64
2021/12/28 05:46:33;;;;;;;55.07;29.13;;;3.70;99.90;;;;;;6274742;28;20474;-65
2021/12/28 05:49:37;;;;;;;61.70;30.17;;;3.70;99.90;;;;;;6274606;28;20470;-64
2021/12/28 05:52:40;;;;;;;60.73;28.67;;;3.70;99.90;;;;;;6275073;28;20470;-64
2021/12/28 05:55:44;;;;;;;61.47;30.07;;;3.60;99.90;;;;;;6275235;28;20968;-64
2021/12/28 05:58:48;;;;;;;63.57;29.60;;;3.60;99.90;;;;;;6274606;28;20485;-64
2021/12/28 06:01:51;;;;;;;70.13;31.93;;;3.70;99.90;;;;;;6275052;28;20465;-64
2021/12/28 06:04:54;;;;;;;62.27;31.20;;;3.70;99.90;;;;;;6275072;28;20489;-63
2021/12/28 06:07:57;;;;;;;63.27;31.40;;;3.70;99.90;;;;;;6265708;28;20811;-63
2021/12/28 06:11:03;;;;;;;61.77;29.80;;;3.70;99.90;;;;;;6279778;28;20470;-63
2021/12/28 06:14:07;;;;;;;73.60;33.93;;;3.60;99.90;;;;;;6279758;28;20470;-63
2021/12/28 06:17:10;;;;;;;68.27;30.67;;;3.60;99.90;;;;;;6279572;28;20486;-64
2021/12/28 06:20:13;;;;;;;69.67;32.97;;;3.50;99.90;;;;;;6278999;28;20473;-64
2021/12/28 06:23:17;;;;;;;62.13;31.33;;;3.50;99.90;;;;;;6279180;28;20478;-64
2021/12/28 06:26:21;;;;;;;61.70;32.17;;;3.50;99.90;;;;;;6279185;28;20472;-64
2021/12/28 06:29:24;;;;;;;62.53;31.27;;;3.40;99.90;;;;;;6279347;28;20480;-65
2021/12/28 06:32:28;;;;;;;65.97;31.87;;;3.40;99.90;;;;;;6278634;28;20470;-66
2021/12/28 06:35:31;;;;;;;63.00;30.87;;;3.30;99.90;;;;;;6278985;28;20493;-65
2021/12/28 06:38:34;;;;;;;67.00;32.67;;;3.20;99.90;;;;;;6278598;28;20477;-65
2021/12/28 06:41:40;;;;;;;70.10;32.27;;;3.30;99.90;;;;;;6278894;28;20473;-65
2021/12/28 06:44:45;;;;;;;69.50;34.37;;;3.20;99.90;;;;;;6278733;28;20489;-64
2021/12/28 06:47:49;;;;;;;62.63;31.70;;;3.20;99.90;;;;;;6279143;28;20486;-64
2021/12/28 06:50:52;;;;;;;67.97;31.93;;;3.20;99.90;;;;;;6278755;28;20981;-65
2021/12/28 06:53:56;;;;;;;76.13;33.90;;;3.10;99.90;;;;;;6279298;28;20485;-64
2021/12/28 06:57:00;;;;;;;78.40;34.43;;;3.20;99.90;;;;;;6278738;28;20528;-65
2021/12/28 07:00:06;;;;;;;64.83;30.60;;;3.10;99.90;;;;;;6277967;28;20910;-65
2021/12/28 07:03:10;;;;;;;64.07;30.77;;;3.00;99.90;;;;;;6278808;28;20462;-64
2021/12/28 07:06:16;;;;;;;59.67;30.80;;;3.10;99.90;;;;;;6278436;28;21297;-65
2021/12/28 07:09:19;;;;;;;66.30;32.30;;;3.20;99.90;;;;;;6268683;28;20445;-64
2021/12/28 07:12:24;;;;;;;79.43;35.60;;;3.20;99.90;;;;;;6277798;28;20488;-64
2021/12/28 07:15:27;;;;;;;68.97;31.10;;;3.20;99.90;;;;;;6278361;28;20473;-64
2021/12/28 07:18:30;;;;;;;66.07;31.20;;;3.20;99.90;;;;;;6278003;28;20466;-64
2021/12/28 07:21:34;;;;;;;58.20;31.20;;;3.20;99.90;;;;;;6278291;28;20531;-64
2021/12/28 07:24:37;;;;;;;60.40;30.73;;;3.20;99.90;;;;;;6278337;28;20470;-65
2021/12/28 07:27:41;;;;;;;54.30;33.67;;;3.30;99.90;;;;;;6278290;28;20465;-65
2021/12/28 07:30:44;;;;;;;56.53;30.10;;;3.30;99.90;;;;;;6277496;28;20478;-65
2021/12/28 07:33:47;;;;;;;65.13;30.57;;;3.40;99.90;;;;;;6277610;28;20507;-65
2021/12/28 07:36:50;;;;;;;49.57;28.53;;;3.40;99.90;;;;;;6277646;28;20474;-65
2021/12/28 07:39:54;;;;;;;58.20;28.10;;;3.40;99.90;;;;;;6277104;28;20466;-65
2021/12/28 07:42:58;;;;;;;51.53;25.50;;;3.50;99.90;;;;;;6277673;28;20470;-63
2021/12/28 07:46:01;;;;;;;52.73;27.43;;;3.60;99.90;;;;;;6277024;28;20469;-64
2021/12/28 07:49:05;;;;;;;50.97;27.60;;;3.60;99.90;;;;;;6276840;28;20474;-64
2021/12/28 07:52:08;;;;;;;48.97;27.80;;;3.70;99.90;;;;;;6277296;28;20477;-64
2021/12/28 07:55:12;;;;;;;58.07;30.50;;;3.70;99.90;;;;;;6276770;28;20775;-64
2021/12/28 07:58:17;;;;;;;53.10;28.40;;;3.70;99.90;;;;;;6274053;28;20775;-64
2021/12/28 08:01:20;;;;;;;50.93;26.30;;;3.80;99.90;;;;;;6276477;28;20536;-64
2021/12/28 08:04:24;;;;;;;52.27;26.93;;;3.80;99.90;;;;;;6274327;28;20489;-64
2021/12/28 08:07:27;;;;;;;51.03;25.70;;;3.70;99.90;;;;;;6276489;28;20470;-61
2021/12/28 08:10:30;;;;;;;50.33;27.80;;;3.80;99.90;;;;;;6270478;28;20768;-62
2021/12/28 08:13:35;;;;;;;50.47;28.20;;;3.80;99.90;;;;;;6271774;28;20989;-62
2021/12/28 08:16:38;;;;;;;51.40;28.47;;;3.90;99.90;;;;;;6275866;28;20553;-63
2021/12/28 08:19:41;;;;;;;51.93;28.80;;;3.80;99.90;;;;;;6276060;28;20969;-63
2021/12/28 08:22:46;;;;;;;55.27;30.60;;;3.80;99.90;;;;;;6275915;28;20481;-64
2021/12/28 08:25:50;;;;;;;48.87;28.10;;;3.80;99.90;;;;;;6275642;28;20812;-63
2021/12/28 08:28:54;;;;;;;49.70;26.77;;;3.80;99.90;;;;;;6275641;28;20473;-63
2021/12/28 08:32:01;;;;;;;48.30;24.70;;;3.80;99.90;;;;;;6275073;28;20477;-62
2021/12/28 08:35:05;;;;;;;48.50;28.10;;;3.70;99.90;;;;;;6275079;28;20965;-63
2021/12/28 08:38:10;;;;;;;50.47;27.63;;;3.70;99.90;;;;;;6275351;28;20478;-63
2021/12/28 08:41:13;;;;;;;70.23;33.50;;;3.70;99.90;;;;;;6275144;28;20852;-63
2021/12/28 08:44:22;;;;;;;61.83;35.27;;;3.80;99.90;;;;;;6275500;28;20572;-63
2021/12/28 08:47:27;;;;;;;55.90;31.43;;;3.90;99.90;;;;;;6274147;28;20473;-65
2021/12/28 08:50:30;;;;;;;47.20;29.20;;;3.90;99.90;;;;;;6275114;28;20480;-65
2021/12/28 08:53:33;;;;;;;42.97;23.70;;;3.80;99.90;;;;;;6274906;28;20483;-63
2021/12/28 08:56:36;;;;;;;47.10;27.50;;;3.90;99.90;;;;;;6274443;28;20478;-63
2021/12/28 08:59:41;;;;;;;44.27;26.97;;;3.90;99.90;;;;;;6274970;28;20474;-64
2021/12/28 09:02:45;;;;;;;45.53;26.90;;;3.90;99.90;;;;;;6275380;28;20481;-64
2021/12/28 09:05:48;;;;;;;46.50;23.90;;;3.90;99.90;;;;;;6274096;28;20482;-63
2021/12/28 09:08:51;;;;;;;46.37;24.90;;;4.00;99.90;;;;;;6274576;28;20887;-63
2021/12/28 09:11:54;;;;;;;51.63;25.90;;;4.00;99.90;;;;;;6270461;28;20479;-64
2021/12/28 09:14:59;;;;;;;47.80;24.73;;;4.10;99.90;;;;;;6250245;28;20475;-63
2021/12/28 09:18:02;;;;;;;41.50;22.97;;;4.10;99.90;;;;;;6250684;28;20959;-63
2021/12/28 09:21:06;;;;;;;45.33;23.97;;;4.10;99.90;;;;;;6249016;28;20470;-63
2021/12/28 09:24:09;;;;;;;47.10;23.00;;;4.10;99.90;;;;;;6250339;28;20471;-64
2021/12/28 09:27:32;;;;;;;38.30;23.07;;;4.10;99.90;;;;;;6250205;28;20974;-64
2021/12/28 09:30:37;;;;;;;39.30;21.27;;;4.20;99.90;;;;;;6249773;28;20467;-65
2021/12/28 09:33:40;;;;;;;41.47;24.03;;;4.30;99.90;;;;;;6250294;28;20498;-64
2021/12/28 09:36:45;;;;;;;38.57;22.83;;;4.30;99.90;;;;;;6249932;28;20546;-63
2021/12/28 09:39:49;;;;;;;37.50;22.80;;;4.40;99.90;;;;;;6271104;28;20476;-61
2021/12/28 09:42:52;;;;;;;39.20;23.70;;;4.50;99.90;;;;;;6276553;28;20481;-64
2021/12/28 09:45:56;;;;;;;38.67;22.90;;;4.60;99.90;;;;;;6254633;28;20467;-61
2021/12/28 09:49:01;;;;;;;38.27;21.83;;;4.60;99.90;;;;;;6254356;28;20813;-61
2021/12/28 09:52:06;;;;;;;46.97;23.80;;;4.70;99.90;;;;;;6254826;28;20482;-61
2021/12/28 09:55:10;;;;;;;43.83;23.50;;;4.70;99.90;;;;;;6254526;28;20475;-62
2021/12/28 09:58:14;;;;;;;38.73;22.37;;;4.70;99.90;;;;;;6255631;28;20478;-62
2021/12/28 10:01:38;;;;;;;39.73;23.00;;;4.70;99.90;;;;;;6279536;28;20501;-62
2021/12/28 10:04:55;;;;;;;45.33;24.37;;;4.70;99.90;;;;;;6278627;28;20474;-62
2021/12/28 10:08:06;;;;;;;36.40;21.50;;;4.60;99.90;;;;;;6278515;28;20466;-61
2021/12/28 10:11:09;;;;;;;39.60;23.40;;;4.60;99.90;;;;;;6278936;28;20808;-62
2021/12/28 10:14:18;;;;;;;42.77;22.17;;;4.60;99.90;;;;;;6279410;28;20492;-62
2021/12/28 10:17:26;;;;;;;41.50;25.23;;;4.60;99.90;;;;;;6279131;28;20466;-63
2021/12/28 10:20:32;;;;;;;43.63;24.97;;;4.50;99.90;;;;;;6278914;28;20477;-62
2021/12/28 10:23:35;;;;;;;41.87;23.30;;;4.40;99.90;;;;;;6269160;28;20468;-62
2021/12/28 10:26:39;;;;;;;45.30;25.33;;;4.50;99.90;;;;;;6278894;28;20484;-61
2021/12/28 10:29:47;;;;;;;46.13;25.10;;;4.40;99.90;;;;;;6278079;28;20466;-63
2021/12/28 10:32:53;;;;;;;45.33;24.37;;;4.30;99.90;;;;;;6278272;28;20473;-62
2021/12/28 10:35:59;;;;;;;43.10;24.63;;;4.20;99.90;;;;;;6278489;28;20473;-63
2021/12/28 10:39:03;;;;;;;42.50;23.00;;;4.20;99.90;;;;;;6278162;28;20782;-62
2021/12/28 10:42:06;;;;;;;42.07;23.80;;;4.10;99.90;;;;;;6277953;28;20485;-64
2021/12/28 10:45:13;;;;;;;35.23;22.33;;;4.10;99.90;;;;;;6278052;28;20796;-62
2021/12/28 10:48:21;;;;;;;43.63;22.47;;;4.10;99.90;;;;;;6278167;28;20461;-63
2021/12/28 10:51:29;;;;;;;42.33;22.47;;;4.20;99.90;;;;;;6253090;28;20471;-62
2021/12/28 10:54:32;;;;;;;37.17;21.30;;;4.30;99.90;;;;;;6258606;28;20921;-62
2021/12/28 10:57:40;;;;;;;41.70;23.60;;;4.30;99.90;;;;;;6278519;28;20544;-62
2021/12/28 11:00:44;;;;;;;38.77;21.70;;;4.30;99.90;;;;;;6275873;28;20473;-62
2021/12/28 11:03:50;;;;;;;36.13;22.00;;;4.40;99.90;;;;;;6259453;28;20475;-62
2021/12/28 11:06:54;;;;;;;46.13;23.50;;;4.20;99.90;;;;;;6259572;28;20482;-62
2021/12/28 11:10:04;;;;;;;42.70;24.73;;;3.90;99.90;;;;;;6277336;28;20531;-62
2021/12/28 11:13:07;;;;;;;44.20;24.60;;;3.90;99.90;;;;;;6277650;28;20485;-62
2021/12/28 11:16:13;;;;;;;45.73;24.90;;;3.90;99.90;;;;;;6277321;28;20470;-62
2021/12/28 11:19:24;;;;;;;43.07;22.87;;;4.00;99.90;;;;;;6277087;28;20482;-62
2021/12/28 11:22:27;;;;;;;43.70;26.97;;;4.00;99.90;;;;;;6277228;28;20470;-61
2021/12/28 11:25:30;;;;;;;38.73;22.67;;;4.10;99.90;;;;;;6272087;28;20930;-61
2021/12/28 11:28:34;;;;;;;36.73;22.10;;;4.20;99.90;;;;;;6277259;28;20539;-61
2021/12/28 11:31:39;;;;;;;40.73;22.83;;;4.30;99.90;;;;;;6277312;28;20478;-61
2021/12/28 11:34:45;;;;;;;38.07;21.50;;;4.30;99.90;;;;;;6276925;28;20470;-61
2021/12/28 11:37:49;;;;;;;33.53;20.80;;;4.20;99.90;;;;;;6272620;28;20950;-61
2021/12/28 11:40:52;;;;;;;36.30;23.17;;;4.30;99.90;;;;;;6273734;28;20469;-62
2021/12/28 11:43:57;;;;;;;43.40;23.30;;;4.30;99.90;;;;;;6262781;28;20504;-62
2021/12/28 11:47:01;;;;;;;38.57;22.13;;;4.30;99.90;;;;;;6276828;28;20469;-62
2021/12/28 11:50:09;;;;;;;36.17;22.10;;;4.30;99.90;;;;;;6276061;28;20609;-62
2021/12/28 11:53:14;;;;;;;42.03;24.43;;;4.30;99.90;;;;;;6275683;28;20490;-62
2021/12/28 11:56:21;;;;;;;43.87;24.30;;;4.30;99.90;;;;;;6276255;28;20482;-62
2021/12/28 11:59:26;;;;;;;36.43;22.17;;;4.40;99.90;;;;;;6276359;28;20543;-62
2021/12/28 12:02:37;;;;;;;36.33;20.13;;;4.20;99.90;;;;;;6275472;28;20466;-62
2021/12/28 12:05:46;;;;;;;34.27;21.10;;;4.30;99.90;;;;;;6276706;28;20478;-61
2021/12/28 12:09:03;;;;;;;38.97;23.10;;;4.20;99.90;;;;;;6275599;28;20980;-62
2021/12/28 12:12:15;;;;;;;36.77;21.57;;;4.20;99.90;;;;;;6276156;28;20450;-63
2021/12/28 12:15:26;;;;;;;40.83;24.10;;;4.20;99.90;;;;;;6276033;28;20450;-61
2021/12/28 12:18:32;;;;;;;39.33;23.47;;;4.20;99.90;;;;;;6276246;28;20473;-62
2021/12/28 12:21:37;;;;;;;37.53;23.83;;;4.20;99.90;;;;;;6276193;28;20450;-62
2021/12/28 12:24:53;;;;;;;34.67;22.13;;;4.10;99.90;;;;;;6272618;28;20542;-61
2021/12/28 12:27:58;;;;;;;37.70;23.43;;;4.20;99.90;;;;;;6270846;28;20769;-62
2021/12/28 12:31:02;;;;;;;35.37;22.17;;;4.20;99.90;;;;;;6275786;28;21160;-62
2021/12/28 12:34:27;;;;;;;43.43;23.30;;;4.30;99.90;;;;;;6275291;28;21025;-61
2021/12/28 12:37:42;;;;;;;33.27;21.43;;;4.30;99.90;;;;;;6275645;28;20458;-61
2021/12/28 12:40:53;;;;;;;38.10;22.47;;;4.30;99.90;;;;;;6275108;28;20477;-61
2021/12/28 12:43:59;;;;;;;43.47;24.37;;;4.20;99.90;;;;;;6275488;28;20963;-61
2021/12/28 12:47:08;;;;;;;36.97;22.73;;;4.00;99.90;;;;;;6275399;28;20973;-61
2021/12/28 12:50:11;;;;;;;46.70;22.73;;;3.80;99.90;;;;;;6275425;28;20565;-62
2021/12/28 12:53:45;;;;;;;41.40;22.90;;;3.80;99.90;;;;;;6274753;28;20485;-61
2021/12/28 12:57:16;;;;;;;43.03;23.80;;;3.90;99.90;;;;;;6275381;28;20957;-61
2021/12/28 13:00:20;;;;;;;38.13;22.17;;;4.00;99.90;;;;;;6259125;28;20969;-61
2021/12/28 13:03:32;;;;;;;38.60;23.00;;;4.00;99.90;;;;;;6274879;28;20465;-61
2021/12/28 13:07:08;;;;;;;35.23;21.73;;;4.10;99.90;;;;;;6274544;28;20504;-61
2021/12/28 13:10:16;;;;;;;40.53;23.43;;;4.10;99.90;;;;;;6270285;28;20474;-61
2021/12/28 13:13:19;;;;;;;30.70;20.20;;;4.10;99.90;;;;;;6274962;28;20470;-62
2021/12/28 13:16:22;;;;;;;35.10;20.73;;;4.10;99.90;;;;;;6274509;28;20488;-62
2021/12/28 13:19:26;;;;;;;38.30;22.17;;;4.10;99.90;;;;;;6274850;28;20945;-62
2021/12/28 13:22:31;;;;;;;35.70;20.10;;;4.10;99.90;;;;;;6274485;28;20492;-62
2021/12/28 13:25:40;;;;;;;34.90;23.27;;;4.20;99.90;;;;;;6274968;28;20477;-63
2021/12/28 13:28:43;;;;;;;34.27;21.63;;;4.20;99.90;;;;;;6274820;28;20478;-63
2021/12/28 13:31:46;;;;;;;41.50;24.17;;;4.10;99.90;;;;;;6274761;28;20480;-63
2021/12/28 13:35:01;;;;;;;41.17;23.40;;;4.20;99.90;;;;;;6264616;28;20509;-63
2021/12/28 13:38:07;;;;;;;37.97;21.87;;;4.20;99.90;;;;;;6273886;28;20466;-63
2021/12/28 13:41:11;;;;;;;47.17;23.70;;;4.20;99.90;;;;;;6249458;28;20481;-64
2021/12/28 13:44:14;;;;;;;38.80;22.90;;;4.10;99.90;;;;;;6249524;28;20830;-63
2021/12/28 13:47:19;;;;;;;34.10;21.70;;;4.20;99.90;;;;;;6249347;28;20479;-63
2021/12/28 13:50:23;;;;;;;35.20;20.90;;;4.20;99.90;;;;;;6249616;28;20459;-63
2021/12/28 13:53:28;;;;;;;36.70;22.67;;;4.20;99.90;;;;;;6249317;28;20483;-63
2021/12/28 13:56:35;;;;;;;39.17;25.40;;;4.20;99.90;;;;;;6249949;28;20466;-63
2021/12/28 13:59:39;;;;;;;41.07;24.70;;;4.20;99.90;;;;;;6249286;28;20485;-64
2021/12/28 14:02:52;;;;;;;40.20;23.40;;;4.30;99.90;;;;;;6249316;28;20482;-63
2021/12/28 14:05:55;;;;;;;34.90;21.80;;;4.30;99.90;;;;;;6249658;28;20586;-63
2021/12/28 14:09:02;;;;;;;37.03;22.13;;;4.30;99.90;;;;;;6274619;28;20474;-63
2021/12/28 14:12:10;;;;;;;35.87;22.67;;;4.30;99.90;;;;;;6273963;28;20981;-63
2021/12/28 14:15:14;;;;;;;35.37;20.97;;;4.40;99.90;;;;;;6274511;28;20470;-62
2021/12/28 14:18:26;;;;;;;36.03;20.57;;;4.30;99.90;;;;;;6273679;28;20561;-63
2021/12/28 14:21:31;;;;;;;36.07;21.00;;;4.20;99.90;;;;;;6274081;28;20465;-61
2021/12/28 14:24:35;;;;;;;35.30;22.00;;;4.20;99.90;;;;;;6274063;28;20474;-61
2021/12/28 14:27:40;;;;;;;34.90;21.13;;;4.20;99.90;;;;;;6277274;28;20465;-62
2021/12/28 14:30:43;;;;;;;39.30;20.07;;;4.10;99.90;;;;;;6278730;28;20465;-62
2021/12/28 14:33:49;;;;;;;31.00;20.33;;;4.20;99.90;;;;;;6278432;28;20538;-64
2021/12/28 14:37:01;;;;;;;32.33;21.10;;;4.10;99.90;;;;;;6274022;28;20466;-62
2021/12/28 14:40:16;;;;;;;32.70;19.73;;;4.20;99.90;;;;;;6278836;28;20482;-62
2021/12/28 14:43:21;;;;;;;33.03;19.30;;;4.20;99.90;;;;;;6278179;28;20485;-61
2021/12/28 14:46:31;;;;;;;33.03;21.43;;;4.20;99.90;;;;;;6278636;28;20466;-62
2021/12/28 14:49:37;;;;;;;32.67;20.23;;;4.10;99.90;;;;;;6278146;28;20474;-61
2021/12/28 14:52:42;;;;;;;28.30;19.53;;;4.00;99.90;;;;;;6278485;28;20476;-61
2021/12/28 14:55:45;;;;;;;39.37;18.80;;;3.90;99.90;;;;;;6278006;28;20946;-61
2021/12/28 14:58:54;;;;;;;26.93;17.30;;;3.90;99.90;;;;;;6278101;28;20485;-61
2021/12/28 15:01:59;;;;;;;27.30;17.23;;;3.80;99.90;;;;;;6278182;28;20539;-61
2021/12/28 15:05:04;;;;;;;27.97;16.83;;;3.90;99.90;;;;;;6277695;28;20477;-61
2021/12/28 15:08:10;;;;;;;26.70;17.87;;;3.90;99.90;;;;;;6277632;28;20477;-61
2021/12/28 15:11:15;;;;;;;27.93;17.20;;;3.90;99.90;;;;;;6277600;28;20477;-61
2021/12/28 15:14:22;;;;;;;25.73;15.80;;;3.90;99.90;;;;;;6277610;28;20868;-60
2021/12/28 15:17:26;;;;;;;25.00;16.50;;;3.90;99.90;;;;;;6277280;28;20477;-60
2021/12/28 15:20:30;;;;;;;31.27;16.73;;;3.90;99.90;;;;;;6277467;28;20484;-60
2021/12/28 15:23:35;;;;;;;33.90;17.93;;;3.90;99.90;;;;;;6277265;28;20488;-62
2021/12/28 15:26:38;;;;;;;30.07;19.40;;;3.90;99.90;;;;;;6277140;28;20467;-61
2021/12/28 15:29:44;;;;;;;27.13;18.63;;;3.90;99.90;;;;;;6277082;28;20485;-62
2021/12/28 15:32:48;;;;;;;26.73;17.03;;;4.00;99.90;;;;;;6277081;28;20485;-62
2021/12/28 15:35:59;;;;;;;27.60;17.57;;;4.00;99.90;;;;;;6277019;28;20799;-61
2021/12/28 15:39:04;;;;;;;29.47;18.57;;;4.00;99.90;;;;;;6275907;28;20466;-61
2021/12/28 15:42:07;;;;;;;31.67;18.17;;;4.00;99.90;;;;;;6276766;28;20486;-62
2021/12/28 15:45:13;;;;;;;33.73;18.37;;;4.00;99.90;;;;;;6277739;28;20464;-62
2021/12/28 15:48:17;;;;;;;29.13;17.70;;;4.00;99.90;;;;;;6277982;28;20764;-62
2021/12/28 15:51:20;;;;;;;28.50;18.13;;;4.10;99.90;;;;;;6277652;28;20438;-62